Terminal Aerodrome Forecast
Issued by NWS Sterling, VA

Current Version | Previous Version | Text Only | Print | Product List | Glossary Off
Versions: 1 2 3 4 5 6 7 8 9 10 11 12 13 14 15 16 17 18

000
FTUS41 KLWX 251720
TAFIAD
TAF
KIAD 251720Z 2518/2624 25006KT P6SM FEW250
     FM260000 18004KT P6SM FEW250
     FM260800 00000KT P6SM SCT100
     FM261100 00000KT P6SM BKN080
     FM261900 20006KT P6SM BKN060=

USA.gov is the U.S. government's official web portal to all federal, state and local government web resources and services.